voterrecords.com alexa rank chart, voterrecords.com alexa rank daily changes

voterrecords.com alexa rank chart, voterrecords.com alexa rank daily changes

voterrecords.com
Actual rank:
38 939

RANK HISTORY

Date Rank Diff
2019/03/27 38 939 -15 385
2019/03/26 54 324 +8 633
2019/03/25 45 691 -9 804
2019/03/24 55 495 +7 824
2019/03/23 47 671 +1 258
2019/03/22 46 413 -8 514
2019/03/21 54 927 +4 383
2019/03/20 50 544 -8 736
2019/03/19 59 280 -17 021
2019/03/18 76 301 -6 344
2019/03/17 82 645 +45 363
2019/03/16 37 282 -20 760
2019/03/15 58 042 +32
2019/03/14 58 010 +14 624
2019/03/13 43 386 -13 765
2019/03/12 57 151 +8 823
2019/03/11 48 328 -3 983
2019/03/10 52 311 +5 981
2019/03/09 46 330 -1 496
2019/03/08 47 826 -606
2019/03/07 48 432 -262
2019/03/06 48 694 -2 265
2019/03/05 50 959 +6 836
2019/03/04 44 123 -33 910
2019/03/03 78 033 +28 278
2019/03/02 49 755 -37 806
2019/03/01 87 561 +35 634
2019/02/28 51 927 +2 108
2019/02/27 49 819 +2 315
2019/02/26 47 504 -7 707
2019/02/25 55 211 -18 200
2019/02/24 73 411 +27 993
2019/02/22 45 418 -4 530
2019/02/21 49 948 +14 930
2019/02/20 35 018 -19 598
2019/02/19 54 616 -13 462
2019/02/18 68 078 +21 461
2019/02/17 46 617 -15 978
2019/02/16 62 595 +16 255
2019/02/15 46 340 -20 198
2019/02/14 66 538 +27 136
2019/02/13 39 402 -48 471
2019/02/12 87 873 +24 659
2019/02/11 63 214 +16 100
2019/02/10 47 114 -25 316
2019/02/09 72 430 +24 803
2019/02/08 47 627 +4 365
2019/02/07 43 262 -4 220
2019/02/06 47 482 -15 850
2019/02/05 63 332 -5 997
2019/02/04 69 329 +25 641
2019/02/03 43 688 -19 078
2019/02/02 62 766 +6 244
2019/02/01 56 522 +12 214
2019/01/31 44 308 -13 903
2019/01/30 58 211 -7 704
2019/01/29 65 915 +19 471
2019/01/28 46 444 +13 117
2019/01/27 33 327 -203
2019/01/26 33 530 -12 272
2019/01/25 45 802

WIDGET FOR YOUR SITE

DOMAINS WITH THE NEAREST RANK

Domain Rank
gocar.be 38 934
etsmtl.ca 38 935
bpm-power.com 38 936
flavorwire.com 38 937
minsalud.gov.co 38 938
voterrecords.com 38 939
myth-weavers.com 38 940
youpouch.com 38 941
broadinstitute.org 38 942
moneymakerfactory.ru 38 943
edp.pt 38 944

DOMAINS WITH THE NEAREST RANK BY TLD .com

Domain Rank
chesskid.com 38 926
medline.com 38 927
wishesmsg.com 38 932
bpm-power.com 38 936
flavorwire.com 38 937
voterrecords.com 38 939
myth-weavers.com 38 940
youpouch.com 38 941
pornroi.com 38 945
fileviewpro.com 38 948
texasmonthly.com 38 949